This is the latest recevied weather packets stored in our database for station/object VE4GLS. If no packets are shown the sender has not sent any weather packets the latest 10 day(s).
| Time | Temp. | Humidity | Pressure | Rain* | Wind** | Luminosity | Snow |
|---|---|---|---|---|---|---|---|
| 1777643255 | 3.89° C | 67% | 1019.7 hPa | 0 mm | - | - | - |
| 1777642995 | 3.89° C | 67% | 1019.7 hPa | 0 mm | - | - | - |
| 1777642395 | 2.78° C | 69% | 1019.7 hPa | 0 mm | - | - | - |
| 1777642355 | 2.78° C | 70% | 1019.7 hPa | 0 mm | - | - | - |
| 1777641795 | 2.22° C | 73% | 1019.8 hPa | 0 mm | - | - | - |
| 1777641454 | 1.67° C | 75% | 1019.7 hPa | 0 mm | - | - | - |
| 1777641194 | 1.11° C | 76% | 1019.7 hPa | 0 mm | - | - | - |
| 1777640594 | 0° C | 80% | 1019.7 hPa | 0 mm | - | - | - |
| 1777640554 | 0° C | 80% | 1019.6 hPa | 0 mm | - | - | - |
| 1777639994 | -1.11° C | 84% | 1019.6 hPa | 0 mm | - | - | - |
| 1777639656 | -1.67° C | 85% | 1019.6 hPa | 0 mm | - | - | - |
| 1777639395 | -2.22° C | 86% | 1019.6 hPa | 0 mm | - | - | - |
| 1777638794 | -3.33° C | 88% | 1019.5 hPa | 0 mm | - | - | - |
| 1777638756 | -3.33° C | 88% | 1019.5 hPa | 0 mm | - | - | - |
| 1777638194 | -3.89° C | 89% | 1019.5 hPa | 0 mm | - | - | - |
| 1777637854 | -4.44° C | 90% | 1019.4 hPa | 0 mm | - | - | - |
| 1777637594 | -5° C | 90% | 1019.3 hPa | 0 mm | - | - | - |
| 1777636994 | -5.56° C | 89% | 1019.3 hPa | 0 mm | - | - | - |
| 1777636956 | -5.56° C | 89% | 1019.3 hPa | 0 mm | - | - | - |
| 1777636394 | -6.11° C | 90% | 1019.2 hPa | 0 mm | - | - | - |
| 1777636055 | -6.11° C | 89% | 1019.2 hPa | 0 mm | - | - | - |
| 1777635793 | -6.67° C | 89% | 1019.2 hPa | 0 mm | - | - | - |
| 1777635193 | -6.67° C | 87% | 1019.2 hPa | 0 mm | - | - | - |
| 1777635155 | -6.67° C | 87% | 1019.2 hPa | 0 mm | - | - | - |
| 1777634593 | -6.67° C | 86% | 1019.1 hPa | 0 mm | - | - | - |
* Rain latest hour (hover to see other rain measurements)
** Current wind speed in m/s (hover to see current wind gust speed)